Westport, Oklahoma
Current Conditions -  °F | °C
As of 5:55 AM on Thursday 23 Oct 2014 (Local Time) from KOWP Reporting Station
Overcast Overcast  
Wind Chill: 63°   Ceiling: 6000
Heat Index: 63°   Visibility: 10mi
Dew Point: 59°   Wind: 5mph
Humidity: 87%   Direction: 160°SSE
Pressure: 30.12"   Gusts: NA
Location:  36.248°N, 96.4789°W
Report Text: KOWP 231055Z AUTO 16004KT 10SM SCT039 SCT045 OVC060 17/15 A3012 RMK AO2 T01720150
Loading
Personal Weather Stations






























Interactive Weather Map New forecast layout! Learn more

10-Day Weather Forecast

Advertisements
Track Severe Weather on mobile